sensor_id;sensor_type;location;lat;lon;timestamp;temperature;humidity
11989;DHT22;6054;50.966;7.094;2024-02-15T00:01:39;18.90;69.00
11989;DHT22;6054;50.966;7.094;2024-02-15T00:04:10;18.80;68.70
11989;DHT22;6054;50.966;7.094;2024-02-15T00:06:42;18.80;68.70
11989;DHT22;6054;50.966;7.094;2024-02-15T00:09:21;18.80;68.40
11989;DHT22;6054;50.966;7.094;2024-02-15T00:11:48;18.80;68.60
11989;DHT22;6054;50.966;7.094;2024-02-15T00:14:17;18.80;68.60
11989;DHT22;6054;50.966;7.094;2024-02-15T00:16:46;18.70;68.50
11989;DHT22;6054;50.966;7.094;2024-02-15T00:19:19;18.80;68.70
11989;DHT22;6054;50.966;7.094;2024-02-15T00:21:47;18.80;68.40
11989;DHT22;6054;50.966;7.094;2024-02-15T00:24:16;18.70;68.40
11989;DHT22;6054;50.966;7.094;2024-02-15T00:26:46;18.80;68.20
11989;DHT22;6054;50.966;7.094;2024-02-15T00:29:17;18.80;68.30
11989;DHT22;6054;50.966;7.094;2024-02-15T00:31:49;18.80;68.80
11989;DHT22;6054;50.966;7.094;2024-02-15T00:34:17;18.80;68.00
11989;DHT22;6054;50.966;7.094;2024-02-15T00:36:45;18.80;68.10
11989;DHT22;6054;50.966;7.094;2024-02-15T00:39:12;19.00;68.10
11989;DHT22;6054;50.966;7.094;2024-02-15T00:41:45;18.80;68.40
11989;DHT22;6054;50.966;7.094;2024-02-15T00:44:16;18.80;67.90
11989;DHT22;6054;50.966;7.094;2024-02-15T00:46:48;18.80;68.40
11989;DHT22;6054;50.966;7.094;2024-02-15T00:49:16;18.80;68.60
11989;DHT22;6054;50.966;7.094;2024-02-15T00:51:46;18.70;68.10
11989;DHT22;6054;50.966;7.094;2024-02-15T00:54:14;19.00;68.50
11989;DHT22;6054;50.966;7.094;2024-02-15T00:56:43;18.80;67.80
11989;DHT22;6054;50.966;7.094;2024-02-15T00:59:18;19.10;66.70
11989;DHT22;6054;50.966;7.094;2024-02-15T01:01:47;18.80;68.80
11989;DHT22;6054;50.966;7.094;2024-02-15T01:04:16;18.80;68.00
11989;DHT22;6054;50.966;7.094;2024-02-15T01:06:43;18.90;68.50
11989;DHT22;6054;50.966;7.094;2024-02-15T01:09:12;19.00;68.50
11989;DHT22;6054;50.966;7.094;2024-02-15T01:11:44;18.80;68.80
11989;DHT22;6054;50.966;7.094;2024-02-15T01:14:13;18.80;68.50
11989;DHT22;6054;50.966;7.094;2024-02-15T01:16:41;18.80;68.00
11989;DHT22;6054;50.966;7.094;2024-02-15T01:19:09;18.80;68.10
11989;DHT22;6054;50.966;7.094;2024-02-15T01:21:36;18.80;68.10
11989;DHT22;6054;50.966;7.094;2024-02-15T01:24:04;18.80;68.20
11989;DHT22;6054;50.966;7.094;2024-02-15T01:26:34;18.80;68.20
11989;DHT22;6054;50.966;7.094;2024-02-15T01:29:03;18.90;68.90
11989;DHT22;6054;50.966;7.094;2024-02-15T01:31:32;18.80;68.70
11989;DHT22;6054;50.966;7.094;2024-02-15T01:33:59;18.80;68.30
11989;DHT22;6054;50.966;7.094;2024-02-15T01:36:26;18.90;68.20
11989;DHT22;6054;50.966;7.094;2024-02-15T01:38:54;19.00;68.30
11989;DHT22;6054;50.966;7.094;2024-02-15T01:41:22;18.80;68.00
11989;DHT22;6054;50.966;7.094;2024-02-15T01:43:49;18.80;67.80
11989;DHT22;6054;50.966;7.094;2024-02-15T01:46:17;18.80;68.00
11989;DHT22;6054;50.966;7.094;2024-02-15T01:48:45;18.80;68.30
11989;DHT22;6054;50.966;7.094;2024-02-15T01:51:16;18.80;68.40
11989;DHT22;6054;50.966;7.094;2024-02-15T01:53:44;18.60;68.30
11989;DHT22;6054;50.966;7.094;2024-02-15T01:56:13;18.80;68.30
11989;DHT22;6054;50.966;7.094;2024-02-15T01:58:40;18.80;68.60
11989;DHT22;6054;50.966;7.094;2024-02-15T02:01:08;18.80;68.60
11989;DHT22;6054;50.966;7.094;2024-02-15T02:03:35;19.10;68.00
11989;DHT22;6054;50.966;7.094;2024-02-15T02:06:09;18.70;66.70
11989;DHT22;6054;50.966;7.094;2024-02-15T02:08:36;18.80;67.10
11989;DHT22;6054;50.966;7.094;2024-02-15T02:11:03;19.00;67.40
11989;DHT22;6054;50.966;7.094;2024-02-15T02:13:30;18.80;66.00
11989;DHT22;6054;50.966;7.094;2024-02-15T02:15:57;18.70;67.50
11989;DHT22;6054;50.966;7.094;2024-02-15T02:18:25;19.00;65.80
11989;DHT22;6054;50.966;7.094;2024-02-15T02:20:55;19.00;67.50
11989;DHT22;6054;50.966;7.094;2024-02-15T02:23:26;18.70;65.40
11989;DHT22;6054;50.966;7.094;2024-02-15T02:25:55;18.70;66.80
11989;DHT22;6054;50.966;7.094;2024-02-15T02:28:26;18.70;67.30
11989;DHT22;6054;50.966;7.094;2024-02-15T02:30:55;18.70;66.60
11989;DHT22;6054;50.966;7.094;2024-02-15T02:33:23;18.80;68.30
11989;DHT22;6054;50.966;7.094;2024-02-15T02:35:53;18.70;68.10
11989;DHT22;6054;50.966;7.094;2024-02-15T02:38:22;18.80;68.30
11989;DHT22;6054;50.966;7.094;2024-02-15T02:40:51;18.80;68.40
11989;DHT22;6054;50.966;7.094;2024-02-15T02:43:23;18.80;68.40
11989;DHT22;6054;50.966;7.094;2024-02-15T02:45:51;18.70;67.60
11989;DHT22;6054;50.966;7.094;2024-02-15T02:48:19;18.80;68.00
11989;DHT22;6054;50.966;7.094;2024-02-15T02:50:49;19.00;68.50
11989;DHT22;6054;50.966;7.094;2024-02-15T02:53:18;18.80;68.70
11989;DHT22;6054;50.966;7.094;2024-02-15T02:55:45;18.80;68.40
11989;DHT22;6054;50.966;7.094;2024-02-15T02:58:13;18.80;68.00
11989;DHT22;6054;50.966;7.094;2024-02-15T03:00:44;18.80;68.00
11989;DHT22;6054;50.966;7.094;2024-02-15T03:03:12;18.70;68.00
11989;DHT22;6054;50.966;7.094;2024-02-15T03:05:40;18.80;68.10
11989;DHT22;6054;50.966;7.094;2024-02-15T03:08:16;18.70;68.30
11989;DHT22;6054;50.966;7.094;2024-02-15T03:10:46;18.80;68.30
11989;DHT22;6054;50.966;7.094;2024-02-15T03:13:17;18.80;68.30
11989;DHT22;6054;50.966;7.094;2024-02-15T03:15:49;18.80;68.40
11989;DHT22;6054;50.966;7.094;2024-02-15T03:18:16;18.80;68.30
11989;DHT22;6054;50.966;7.094;2024-02-15T03:20:43;18.80;68.20
11989;DHT22;6054;50.966;7.094;2024-02-15T03:23:25;18.80;67.90
11989;DHT22;6054;50.966;7.094;2024-02-15T03:25:53;18.80;67.70
11989;DHT22;6054;50.966;7.094;2024-02-15T03:28:22;18.80;66.80
11989;DHT22;6054;50.966;7.094;2024-02-15T03:30:54;18.70;66.10
11989;DHT22;6054;50.966;7.094;2024-02-15T03:33:22;18.80;68.20
11989;DHT22;6054;50.966;7.094;2024-02-15T03:35:53;18.80;68.20
11989;DHT22;6054;50.966;7.094;2024-02-15T03:38:26;18.80;68.20
11989;DHT22;6054;50.966;7.094;2024-02-15T03:40:54;18.80;68.00
11989;DHT22;6054;50.966;7.094;2024-02-15T03:43:21;18.80;67.90
11989;DHT22;6054;50.966;7.094;2024-02-15T03:45:52;18.80;68.10
11989;DHT22;6054;50.966;7.094;2024-02-15T03:48:23;18.80;68.00
11989;DHT22;6054;50.966;7.094;2024-02-15T03:50:53;18.80;68.10
11989;DHT22;6054;50.966;7.094;2024-02-15T03:53:23;18.80;68.50
11989;DHT22;6054;50.966;7.094;2024-02-15T03:55:53;19.00;68.70
11989;DHT22;6054;50.966;7.094;2024-02-15T03:58:21;18.80;68.50
11989;DHT22;6054;50.966;7.094;2024-02-15T04:00:48;18.80;68.00
11989;DHT22;6054;50.966;7.094;2024-02-15T04:03:20;18.80;68.20
11989;DHT22;6054;50.966;7.094;2024-02-15T04:05:59;18.80;68.20
11989;DHT22;6054;50.966;7.094;2024-02-15T04:08:27;18.80;68.10
11989;DHT22;6054;50.966;7.094;2024-02-15T04:10:55;18.80;68.10
11989;DHT22;6054;50.966;7.094;2024-02-15T04:13:23;18.80;67.70
11989;DHT22;6054;50.966;7.094;2024-02-15T04:15:51;18.80;68.10
11989;DHT22;6054;50.966;7.094;2024-02-15T04:18:21;18.90;68.30
11989;DHT22;6054;50.966;7.094;2024-02-15T04:20:53;18.80;67.80
11989;DHT22;6054;50.966;7.094;2024-02-15T04:23:22;18.90;68.20
11989;DHT22;6054;50.966;7.094;2024-02-15T04:25:51;18.80;68.10
11989;DHT22;6054;50.966;7.094;2024-02-15T04:28:19;19.10;68.40
11989;DHT22;6054;50.966;7.094;2024-02-15T04:30:46;18.80;68.00
11989;DHT22;6054;50.966;7.094;2024-02-15T04:33:15;19.00;67.80
11989;DHT22;6054;50.966;7.094;2024-02-15T04:35:44;18.70;67.40
11989;DHT22;6054;50.966;7.094;2024-02-15T04:38:14;18.80;66.40
11989;DHT22;6054;50.966;7.094;2024-02-15T04:40:44;18.70;67.60
11989;DHT22;6054;50.966;7.094;2024-02-15T04:43:12;18.80;67.60
11989;DHT22;6054;50.966;7.094;2024-02-15T04:45:41;18.90;68.00
11989;DHT22;6054;50.966;7.094;2024-02-15T04:48:08;18.80;67.60
11989;DHT22;6054;50.966;7.094;2024-02-15T04:50:40;18.80;67.90
11989;DHT22;6054;50.966;7.094;2024-02-15T04:53:13;18.80;68.40
11989;DHT22;6054;50.966;7.094;2024-02-15T04:55:40;18.80;68.00
11989;DHT22;6054;50.966;7.094;2024-02-15T04:58:08;18.80;68.00
11989;DHT22;6054;50.966;7.094;2024-02-15T05:00:36;18.80;67.80
11989;DHT22;6054;50.966;7.094;2024-02-15T05:03:04;18.80;67.90
11989;DHT22;6054;50.966;7.094;2024-02-15T05:05:33;18.80;68.00
11989;DHT22;6054;50.966;7.094;2024-02-15T05:08:06;18.80;68.20
11989;DHT22;6054;50.966;7.094;2024-02-15T05:10:38;18.80;68.30
11989;DHT22;6054;50.966;7.094;2024-02-15T05:13:05;18.80;68.20
11989;DHT22;6054;50.966;7.094;2024-02-15T05:15:32;18.90;67.60
11989;DHT22;6054;50.966;7.094;2024-02-15T05:18:00;18.90;65.90
11989;DHT22;6054;50.966;7.094;2024-02-15T05:20:30;19.20;67.00
11989;DHT22;6054;50.966;7.094;2024-02-15T05:23:00;18.90;66.60
11989;DHT22;6054;50.966;7.094;2024-02-15T05:25:28;19.20;66.70
11989;DHT22;6054;50.966;7.094;2024-02-15T05:28:00;19.00;67.00
11989;DHT22;6054;50.966;7.094;2024-02-15T05:30:29;18.90;66.30
11989;DHT22;6054;50.966;7.094;2024-02-15T05:33:03;18.90;66.50
11989;DHT22;6054;50.966;7.094;2024-02-15T05:35:35;18.90;66.80
11989;DHT22;6054;50.966;7.094;2024-02-15T05:38:17;19.20;66.00
11989;DHT22;6054;50.966;7.094;2024-02-15T05:40:44;18.90;65.10
11989;DHT22;6054;50.966;7.094;2024-02-15T05:43:15;18.90;66.20
11989;DHT22;6054;50.966;7.094;2024-02-15T05:45:44;19.10;66.60
11989;DHT22;6054;50.966;7.094;2024-02-15T05:48:12;18.90;66.90
11989;DHT22;6054;50.966;7.094;2024-02-15T05:50:40;18.90;66.30
11989;DHT22;6054;50.966;7.094;2024-02-15T05:53:10;18.90;66.60
11989;DHT22;6054;50.966;7.094;2024-02-15T05:55:37;18.90;68.50
11989;DHT22;6054;50.966;7.094;2024-02-15T05:58:11;18.90;66.20
11989;DHT22;6054;50.966;7.094;2024-02-15T06:00:44;19.10;66.00
11989;DHT22;6054;50.966;7.094;2024-02-15T06:03:15;18.90;66.60
11989;DHT22;6054;50.966;7.094;2024-02-15T06:05:44;19.10;66.80
11989;DHT22;6054;50.966;7.094;2024-02-15T06:08:16;18.90;65.50
11989;DHT22;6054;50.966;7.094;2024-02-15T06:10:50;18.90;66.90
11989;DHT22;6054;50.966;7.094;2024-02-15T06:13:22;19.20;67.20
11989;DHT22;6054;50.966;7.094;2024-02-15T06:15:53;18.80;68.30
11989;DHT22;6054;50.966;7.094;2024-02-15T06:18:20;19.20;68.20
11989;DHT22;6054;50.966;7.094;2024-02-15T06:20:50;19.00;67.10
11989;DHT22;6054;50.966;7.094;2024-02-15T06:23:20;19.00;67.60
11989;DHT22;6054;50.966;7.094;2024-02-15T06:25:50;19.00;66.50
11989;DHT22;6054;50.966;7.094;2024-02-15T06:28:19;19.00;67.40
11989;DHT22;6054;50.966;7.094;2024-02-15T06:31:08;19.00;67.00
11989;DHT22;6054;50.966;7.094;2024-02-15T06:33:52;19.20;67.30
11989;DHT22;6054;50.966;7.094;2024-02-15T06:36:39;19.10;67.70
11989;DHT22;6054;50.966;7.094;2024-02-15T06:39:23;18.90;67.10
11989;DHT22;6054;50.966;7.094;2024-02-15T06:42:06;19.00;68.40
11989;DHT22;6054;50.966;7.094;2024-02-15T06:44:33;18.90;68.30
11989;DHT22;6054;50.966;7.094;2024-02-15T06:47:06;18.90;68.00
11989;DHT22;6054;50.966;7.094;2024-02-15T06:49:35;18.90;67.90
11989;DHT22;6054;50.966;7.094;2024-02-15T06:52:06;18.90;68.00
11989;DHT22;6054;50.966;7.094;2024-02-15T06:54:34;18.90;68.30
11989;DHT22;6054;50.966;7.094;2024-02-15T06:57:03;19.00;68.00
11989;DHT22;6054;50.966;7.094;2024-02-15T06:59:30;18.90;68.20
11989;DHT22;6054;50.966;7.094;2024-02-15T07:01:58;18.90;65.90
11989;DHT22;6054;50.966;7.094;2024-02-15T07:04:27;19.20;66.00
11989;DHT22;6054;50.966;7.094;2024-02-15T07:06:55;19.20;66.50
11989;DHT22;6054;50.966;7.094;2024-02-15T07:09:23;18.90;66.10
11989;DHT22;6054;50.966;7.094;2024-02-15T07:11:53;18.90;67.50
11989;DHT22;6054;50.966;7.094;2024-02-15T07:14:28;19.10;66.60
11989;DHT22;6054;50.966;7.094;2024-02-15T07:16:58;18.90;66.00
11989;DHT22;6054;50.966;7.094;2024-02-15T07:19:31;18.90;67.40
11989;DHT22;6054;50.966;7.094;2024-02-15T07:22:05;19.20;68.90
11989;DHT22;6054;50.966;7.094;2024-02-15T07:24:33;19.00;68.60
11989;DHT22;6054;50.966;7.094;2024-02-15T07:27:01;19.10;66.60
11989;DHT22;6054;50.966;7.094;2024-02-15T07:29:30;19.00;66.60
11989;DHT22;6054;50.966;7.094;2024-02-15T07:31:58;19.00;67.10
11989;DHT22;6054;50.966;7.094;2024-02-15T07:34:29;18.90;67.00
11989;DHT22;6054;50.966;7.094;2024-02-15T07:37:01;19.00;68.70
11989;DHT22;6054;50.966;7.094;2024-02-15T07:39:30;19.30;68.80
11989;DHT22;6054;50.966;7.094;2024-02-15T07:42:01;19.00;66.60
11989;DHT22;6054;50.966;7.094;2024-02-15T07:44:31;19.00;68.70
11989;DHT22;6054;50.966;7.094;2024-02-15T07:47:01;18.90;64.80
11989;DHT22;6054;50.966;7.094;2024-02-15T07:49:34;19.00;67.60
11989;DHT22;6054;50.966;7.094;2024-02-15T07:52:02;18.90;68.00
11989;DHT22;6054;50.966;7.094;2024-02-15T07:54:30;19.00;68.60
11989;DHT22;6054;50.966;7.094;2024-02-15T07:56:58;19.00;68.40
11989;DHT22;6054;50.966;7.094;2024-02-15T07:59:26;19.00;68.00
11989;DHT22;6054;50.966;7.094;2024-02-15T08:01:54;19.00;67.90
11989;DHT22;6054;50.966;7.094;2024-02-15T08:04:21;19.00;68.00
11989;DHT22;6054;50.966;7.094;2024-02-15T08:06:53;18.90;68.40
11989;DHT22;6054;50.966;7.094;2024-02-15T08:09:23;19.00;68.20
11989;DHT22;6054;50.966;7.094;2024-02-15T08:11:51;19.00;68.40
11989;DHT22;6054;50.966;7.094;2024-02-15T08:14:22;19.00;68.00
11989;DHT22;6054;50.966;7.094;2024-02-15T08:16:54;19.00;68.30
11989;DHT22;6054;50.966;7.094;2024-02-15T08:19:22;19.00;68.40
11989;DHT22;6054;50.966;7.094;2024-02-15T08:22:03;18.90;68.40
11989;DHT22;6054;50.966;7.094;2024-02-15T08:24:31;18.90;68.40
11989;DHT22;6054;50.966;7.094;2024-02-15T08:27:00;18.90;68.20
11989;DHT22;6054;50.966;7.094;2024-02-15T08:29:31;18.90;68.30
11989;DHT22;6054;50.966;7.094;2024-02-15T08:31:59;18.90;68.30
11989;DHT22;6054;50.966;7.094;2024-02-15T08:34:26;18.90;68.10
11989;DHT22;6054;50.966;7.094;2024-02-15T08:37:03;18.90;67.80
11989;DHT22;6054;50.966;7.094;2024-02-15T08:39:32;18.90;68.10
11989;DHT22;6054;50.966;7.094;2024-02-15T08:42:00;18.80;67.90
11989;DHT22;6054;50.966;7.094;2024-02-15T08:44:31;18.80;68.30
11989;DHT22;6054;50.966;7.094;2024-02-15T08:46:59;18.90;68.10
11989;DHT22;6054;50.966;7.094;2024-02-15T08:49:27;18.70;68.20
11989;DHT22;6054;50.966;7.094;2024-02-15T08:51:58;18.70;67.70
11989;DHT22;6054;50.966;7.094;2024-02-15T08:54:30;18.70;67.60
11989;DHT22;6054;50.966;7.094;2024-02-15T08:57:00;18.70;65.80
11989;DHT22;6054;50.966;7.094;2024-02-15T08:59:30;18.70;64.20
11989;DHT22;6054;50.966;7.094;2024-02-15T09:01:59;19.00;66.80
11989;DHT22;6054;50.966;7.094;2024-02-15T09:04:26;19.00;66.60
11989;DHT22;6054;50.966;7.094;2024-02-15T09:06:57;18.80;66.70
11989;DHT22;6054;50.966;7.094;2024-02-15T09:09:24;18.70;66.60
11989;DHT22;6054;50.966;7.094;2024-02-15T09:11:53;19.10;67.90
11989;DHT22;6054;50.966;7.094;2024-02-15T09:14:21;18.80;68.80
11989;DHT22;6054;50.966;7.094;2024-02-15T09:16:47;19.00;69.10
11989;DHT22;6054;50.966;7.094;2024-02-15T09:19:15;18.80;68.70
11989;DHT22;6054;50.966;7.094;2024-02-15T09:21:43;18.80;68.80
11989;DHT22;6054;50.966;7.094;2024-02-15T09:24:12;18.80;68.70
11989;DHT22;6054;50.966;7.094;2024-02-15T09:26:44;18.90;68.90
11989;DHT22;6054;50.966;7.094;2024-02-15T09:29:18;18.90;69.80
11989;DHT22;6054;50.966;7.094;2024-02-15T09:31:46;18.90;69.90
11989;DHT22;6054;50.966;7.094;2024-02-15T09:34:18;18.90;69.80
11989;DHT22;6054;50.966;7.094;2024-02-15T09:36:48;19.30;68.40
11989;DHT22;6054;50.966;7.094;2024-02-15T09:39:18;19.30;69.00
11989;DHT22;6054;50.966;7.094;2024-02-15T09:41:46;19.40;67.50
11989;DHT22;6054;50.966;7.094;2024-02-15T09:44:27;19.10;69.00
11989;DHT22;6054;50.966;7.094;2024-02-15T09:47:02;19.10;69.20
11989;DHT22;6054;50.966;7.094;2024-02-15T09:49:35;19.10;69.80
11989;DHT22;6054;50.966;7.094;2024-02-15T09:52:06;19.20;69.80
11989;DHT22;6054;50.966;7.094;2024-02-15T09:54:39;19.20;69.80
11989;DHT22;6054;50.966;7.094;2024-02-15T09:57:12;19.20;69.60
11989;DHT22;6054;50.966;7.094;2024-02-15T09:59:42;19.20;69.50
11989;DHT22;6054;50.966;7.094;2024-02-15T10:02:10;19.20;69.60
11989;DHT22;6054;50.966;7.094;2024-02-15T10:04:40;19.20;69.90
11989;DHT22;6054;50.966;7.094;2024-02-15T10:07:07;19.30;70.00
11989;DHT22;6054;50.966;7.094;2024-02-15T10:09:34;19.50;70.30
11989;DHT22;6054;50.966;7.094;2024-02-15T10:12:03;19.40;70.40
11989;DHT22;6054;50.966;7.094;2024-02-15T10:14:35;19.50;70.60
11989;DHT22;6054;50.966;7.094;2024-02-15T10:17:08;19.50;70.00
11989;DHT22;6054;50.966;7.094;2024-02-15T10:19:38;19.70;69.80
11989;DHT22;6054;50.966;7.094;2024-02-15T10:22:11;19.80;68.60
11989;DHT22;6054;50.966;7.094;2024-02-15T10:24:42;19.50;66.60
11989;DHT22;6054;50.966;7.094;2024-02-15T10:27:17;19.50;69.00
11989;DHT22;6054;50.966;7.094;2024-02-15T10:30:17;19.70;68.40
11989;DHT22;6054;50.966;7.094;2024-02-15T10:35:51;19.70;68.70
11989;DHT22;6054;50.966;7.094;2024-02-15T10:38:46;19.60;69.40
11989;DHT22;6054;50.966;7.094;2024-02-15T10:41:14;19.70;66.30
11989;DHT22;6054;50.966;7.094;2024-02-15T10:43:42;19.70;69.30
11989;DHT22;6054;50.966;7.094;2024-02-15T10:46:25;20.00;68.00
11989;DHT22;6054;50.966;7.094;2024-02-15T10:49:00;19.70;69.40
11989;DHT22;6054;50.966;7.094;2024-02-15T10:52:01;19.70;69.60
11989;DHT22;6054;50.966;7.094;2024-02-15T10:54:59;20.20;71.10
11989;DHT22;6054;50.966;7.094;2024-02-15T10:57:32;19.90;68.30
11989;DHT22;6054;50.966;7.094;2024-02-15T11:00:00;19.90;67.60
11989;DHT22;6054;50.966;7.094;2024-02-15T11:02:38;20.00;70.30
11989;DHT22;6054;50.966;7.094;2024-02-15T11:05:16;20.10;70.70
11989;DHT22;6054;50.966;7.094;2024-02-15T11:08:08;20.10;66.00
11989;DHT22;6054;50.966;7.094;2024-02-15T11:10:51;20.10;69.40
11989;DHT22;6054;50.966;7.094;2024-02-15T11:13:38;20.10;67.50
11989;DHT22;6054;50.966;7.094;2024-02-15T11:16:05;20.30;65.80
11989;DHT22;6054;50.966;7.094;2024-02-15T11:18:43;20.50;66.90
11989;DHT22;6054;50.966;7.094;2024-02-15T11:24:31;20.40;70.20
11989;DHT22;6054;50.966;7.094;2024-02-15T11:27:02;20.70;69.50
11989;DHT22;6054;50.966;7.094;2024-02-15T11:29:49;20.60;69.80
11989;DHT22;6054;50.966;7.094;2024-02-15T11:32:42;20.50;68.10
11989;DHT22;6054;50.966;7.094;2024-02-15T11:35:36;20.50;70.10
11989;DHT22;6054;50.966;7.094;2024-02-15T11:38:43;20.60;67.30
11989;DHT22;6054;50.966;7.094;2024-02-15T11:41:18;20.90;68.60
11989;DHT22;6054;50.966;7.094;2024-02-15T11:44:00;21.00;68.50
11989;DHT22;6054;50.966;7.094;2024-02-15T11:46:52;20.80;66.80
11989;DHT22;6054;50.966;7.094;2024-02-15T11:49:26;20.80;68.00
11989;DHT22;6054;50.966;7.094;2024-02-15T11:52:08;20.80;66.90
11989;DHT22;6054;50.966;7.094;2024-02-15T11:55:06;20.90;66.90
11989;DHT22;6054;50.966;7.094;2024-02-15T11:58:20;21.00;69.80
11989;DHT22;6054;50.966;7.094;2024-02-15T12:01:13;21.40;70.40
11989;DHT22;6054;50.966;7.094;2024-02-15T12:04:09;21.40;66.70
11989;DHT22;6054;50.966;7.094;2024-02-15T12:06:57;21.10;66.70
11989;DHT22;6054;50.966;7.094;2024-02-15T12:09:47;21.40;68.20
11989;DHT22;6054;50.966;7.094;2024-02-15T12:13:03;21.20;66.20
11989;DHT22;6054;50.966;7.094;2024-02-15T12:16:31;21.00;68.70
11989;DHT22;6054;50.966;7.094;2024-02-15T12:22:09;21.40;69.50
11989;DHT22;6054;50.966;7.094;2024-02-15T12:24:39;21.40;68.60
11989;DHT22;6054;50.966;7.094;2024-02-15T12:27:13;21.40;69.00
11989;DHT22;6054;50.966;7.094;2024-02-15T12:29:48;21.50;67.30
11989;DHT22;6054;50.966;7.094;2024-02-15T12:32:27;21.80;69.70
11989;DHT22;6054;50.966;7.094;2024-02-15T12:35:10;21.90;68.40
11989;DHT22;6054;50.966;7.094;2024-02-15T12:38:01;21.70;63.80
11989;DHT22;6054;50.966;7.094;2024-02-15T12:40:31;21.90;68.10
11989;DHT22;6054;50.966;7.094;2024-02-15T12:43:30;21.60;66.60
11989;DHT22;6054;50.966;7.094;2024-02-15T12:46:18;21.70;65.30
11989;DHT22;6054;50.966;7.094;2024-02-15T12:49:27;22.00;65.30
11989;DHT22;6054;50.966;7.094;2024-02-15T12:55:21;21.80;68.90
11989;DHT22;6054;50.966;7.094;2024-02-15T12:57:54;21.60;67.20
11989;DHT22;6054;50.966;7.094;2024-02-15T13:00:25;21.80;68.00
11989;DHT22;6054;50.966;7.094;2024-02-15T13:02:55;21.70;66.70
11989;DHT22;6054;50.966;7.094;2024-02-15T13:05:28;22.00;64.50
11989;DHT22;6054;50.966;7.094;2024-02-15T13:09:13;22.00;66.30
11989;DHT22;6054;50.966;7.094;2024-02-15T13:11:12;22.40;67.50
11989;DHT22;6054;50.966;7.094;2024-02-15T13:13:41;22.10;68.40
11989;DHT22;6054;50.966;7.094;2024-02-15T13:16:08;22.20;68.50
11989;DHT22;6054;50.966;7.094;2024-02-15T13:18:35;22.20;67.90
11989;DHT22;6054;50.966;7.094;2024-02-15T13:21:04;22.20;66.40
11989;DHT22;6054;50.966;7.094;2024-02-15T13:23:31;22.30;67.30
11989;DHT22;6054;50.966;7.094;2024-02-15T13:26:01;22.40;66.80
11989;DHT22;6054;50.966;7.094;2024-02-15T13:28:29;22.30;66.80
11989;DHT22;6054;50.966;7.094;2024-02-15T13:30:57;22.30;67.30
11989;DHT22;6054;50.966;7.094;2024-02-15T13:33:27;22.30;65.20
11989;DHT22;6054;50.966;7.094;2024-02-15T13:35:57;22.50;66.70
11989;DHT22;6054;50.966;7.094;2024-02-15T13:38:26;22.30;67.50
11989;DHT22;6054;50.966;7.094;2024-02-15T13:40:53;22.30;66.40
11989;DHT22;6054;50.966;7.094;2024-02-15T13:43:22;22.30;66.00
11989;DHT22;6054;50.966;7.094;2024-02-15T13:45:49;22.50;67.10
11989;DHT22;6054;50.966;7.094;2024-02-15T13:48:17;22.30;66.70
11989;DHT22;6054;50.966;7.094;2024-02-15T13:50:44;22.30;65.30
11989;DHT22;6054;50.966;7.094;2024-02-15T13:53:11;22.60;67.00
11989;DHT22;6054;50.966;7.094;2024-02-15T13:55:40;22.30;63.70
11989;DHT22;6054;50.966;7.094;2024-02-15T13:58:07;22.30;64.60
11989;DHT22;6054;50.966;7.094;2024-02-15T14:00:37;22.30;66.60
11989;DHT22;6054;50.966;7.094;2024-02-15T14:03:08;22.60;67.00
11989;DHT22;6054;50.966;7.094;2024-02-15T14:05:36;22.70;66.70
11989;DHT22;6054;50.966;7.094;2024-02-15T14:08:06;22.40;66.50
11989;DHT22;6054;50.966;7.094;2024-02-15T14:10:35;22.50;66.60
11989;DHT22;6054;50.966;7.094;2024-02-15T14:13:17;22.50;64.60
11989;DHT22;6054;50.966;7.094;2024-02-15T14:15:44;22.90;65.70
11989;DHT22;6054;50.966;7.094;2024-02-15T14:18:12;22.60;66.40
11989;DHT22;6054;50.966;7.094;2024-02-15T14:20:43;22.50;65.10
11989;DHT22;6054;50.966;7.094;2024-02-15T14:23:12;22.60;64.90
11989;DHT22;6054;50.966;7.094;2024-02-15T14:25:41;22.60;64.20
11989;DHT22;6054;50.966;7.094;2024-02-15T14:28:09;22.60;64.60
11989;DHT22;6054;50.966;7.094;2024-02-15T14:30:36;22.60;66.30
11989;DHT22;6054;50.966;7.094;2024-02-15T14:33:21;22.90;66.00
11989;DHT22;6054;50.966;7.094;2024-02-15T14:35:50;22.70;65.40
11989;DHT22;6054;50.966;7.094;2024-02-15T14:38:19;22.70;66.70
11989;DHT22;6054;50.966;7.094;2024-02-15T14:40:47;22.70;65.80
11989;DHT22;6054;50.966;7.094;2024-02-15T14:43:21;23.00;66.80
11989;DHT22;6054;50.966;7.094;2024-02-15T14:45:48;22.80;65.30
11989;DHT22;6054;50.966;7.094;2024-02-15T14:48:17;22.70;64.60
11989;DHT22;6054;50.966;7.094;2024-02-15T14:50:46;22.80;63.80
11989;DHT22;6054;50.966;7.094;2024-02-15T14:53:16;22.70;65.60
11989;DHT22;6054;50.966;7.094;2024-02-15T14:55:44;22.80;66.40
11989;DHT22;6054;50.966;7.094;2024-02-15T14:58:12;22.90;64.20
11989;DHT22;6054;50.966;7.094;2024-02-15T15:00:43;22.70;64.50
11989;DHT22;6054;50.966;7.094;2024-02-15T15:03:11;22.80;65.30
11989;DHT22;6054;50.966;7.094;2024-02-15T15:05:38;22.80;65.50
11989;DHT22;6054;50.966;7.094;2024-02-15T15:08:23;22.80;65.70
11989;DHT22;6054;50.966;7.094;2024-02-15T15:11:09;22.80;66.10
11989;DHT22;6054;50.966;7.094;2024-02-15T15:13:53;22.70;64.50
11989;DHT22;6054;50.966;7.094;2024-02-15T15:16:22;22.70;64.70
11989;DHT22;6054;50.966;7.094;2024-02-15T15:18:51;22.70;65.40
11989;DHT22;6054;50.966;7.094;2024-02-15T15:21:18;22.60;62.40
11989;DHT22;6054;50.966;7.094;2024-02-15T15:23:46;22.90;61.80
11989;DHT22;6054;50.966;7.094;2024-02-15T15:26:18;22.60;63.60
11989;DHT22;6054;50.966;7.094;2024-02-15T15:28:48;22.60;62.60
11989;DHT22;6054;50.966;7.094;2024-02-15T15:31:15;22.50;62.40
11989;DHT22;6054;50.966;7.094;2024-02-15T15:33:47;22.50;63.30
11989;DHT22;6054;50.966;7.094;2024-02-15T15:36:15;22.50;62.60
11989;DHT22;6054;50.966;7.094;2024-02-15T15:38:44;22.50;61.40
11989;DHT22;6054;50.966;7.094;2024-02-15T15:41:11;22.50;62.00
11989;DHT22;6054;50.966;7.094;2024-02-15T15:43:38;22.80;63.30
11989;DHT22;6054;50.966;7.094;2024-02-15T15:46:05;22.50;62.10
11989;DHT22;6054;50.966;7.094;2024-02-15T15:48:34;22.70;63.90
11989;DHT22;6054;50.966;7.094;2024-02-15T15:51:04;22.40;62.00
11989;DHT22;6054;50.966;7.094;2024-02-15T15:53:31;22.40;61.50
11989;DHT22;6054;50.966;7.094;2024-02-15T15:56:07;22.50;60.80
11989;DHT22;6054;50.966;7.094;2024-02-15T15:58:35;22.30;62.20
11989;DHT22;6054;50.966;7.094;2024-02-15T16:01:16;22.60;63.20
11989;DHT22;6054;50.966;7.094;2024-02-15T16:03:48;22.30;62.60
11989;DHT22;6054;50.966;7.094;2024-02-15T16:06:18;22.30;63.00
11989;DHT22;6054;50.966;7.094;2024-02-15T16:08:45;22.30;62.50
11989;DHT22;6054;50.966;7.094;2024-02-15T16:11:14;22.30;62.60
11989;DHT22;6054;50.966;7.094;2024-02-15T16:13:42;22.30;63.00
11989;DHT22;6054;50.966;7.094;2024-02-15T16:16:13;22.30;62.90
11989;DHT22;6054;50.966;7.094;2024-02-15T16:18:41;22.60;62.20
11989;DHT22;6054;50.966;7.094;2024-02-15T16:21:09;22.20;61.60
11989;DHT22;6054;50.966;7.094;2024-02-15T16:23:37;22.20;62.30
11989;DHT22;6054;50.966;7.094;2024-02-15T16:26:04;22.50;63.80
11989;DHT22;6054;50.966;7.094;2024-02-15T16:28:32;22.20;62.00